Aérodrome :
LOGIN :

S'inscrire | Disclaimer

   EN    FR    IT 

 










Légende :    VFR   VFR Marginal   IFR   IFR Intensif   IFR Très Intensif
Visi : 
Plafond : 
>= 8 km
>= 3000ft
5 à 8 km
1000 à 3000 ft
1500m à 5 km
500 à 1000 ft
800 à 1500m
200 à 500 ft
< 800m
< 200 ft
Symboles :   Orages  Brouillard  Fortes neiges  Fortes précipitations  Vent > 20 kt
SIGMETs :   Divers  Orages  Givrage  Turbulence  Onde Orograph.  Cendres Volcan.






- Altitude de l'aérodrome : 364 ft
- Code IATA : FRA


EDDF - Frankfurt Int.

DERNIER METAR :
  • 150750Z 19011KT 9999 FEW022 BKN027 10/08 Q0999 TEMPO 20015G25KT

METARs EXPIRÉS :
  • 150720Z 18011KT 9999 SCT024 BKN045 10/08 Q0999 TEMPO 20015G25KT
  • 150650Z 19010KT 9999 SCT026 BKN046 09/08 Q0999 TEMPO 20015G25KT
  • 150620Z 19010KT 9999 FEW008 SCT024 BKN036 09/08 Q0999 TEMPO 20015G25KT
  • 150550Z 19009KT 9999 -RA FEW004 SCT007 BKN025 09/08 Q0999 TEMPO 20015G25KT
  • 150520Z 18012KT 9999 -RA FEW004 SCT006 OVC046 09/08 Q0998 BECMG 20015G25KT RA

TAF TAF EDDF
Valide du 15 à 06h jusqu'au 16 à 12h UTC


150500Z 1506/1612 20012KT 9999 BKN020
TEMPO 1506/1507 22015G25KT RA BKN008
TEMPO 1507/1512 22015G25KT SHRA BKN014CB
BECMG 1512/1515 SCT030
BECMG 1514/1518 22006KT
BECMG 1602/1606 VRB03KT
TEMPO 1602/1612 4000 -RA BR BKN006



MET'MAP, la Météo Aéronautique d'un coup d'oeil ! - Copyright ORBIFLY Décembre 2007 - Disclaimer

ORBIFLY MET'MAP TEAM :

Programmation & Développement : Alexandra Zaïnal
Sur une idée originale de : Baudouin d'Aumeries
Assistance à la programmation : Marc-Olivier Méhu
Soutien technique & logistique : Manuel Goepfert

Contact : metmap@orbifly.com




SOURCES & CREDITS :

   NOAA